Terminal Aerodrome Forecast
Issued by NWS Blacksburg, VA

Home | Current Version | Previous Version | Text Only | Print | Product List | Glossary On
Versions: 1 2 3 4 5 6 7 8 9 10 11 12 13 14 15 16 17 18 19 20 21 22 23 24 25 26 27 28 29 30 31 32 33 34 35 36 37 38
000
FTUS41 KRNK 302321
TAFLYH
TAF
KLYH 302321Z 3100/3124 10004KT P6SM OVC040
     FM310200 09004KT P6SM OVC030
     FM310400 10005KT P6SM OVC008
      TEMPO 3104/3108 4SM -SHRA OVC003
     FM310800 12007KT 3SM SHRA OVC008
     FM311200 14008KT 4SM -SHRA OVC003
     FM311500 17009KT 4SM -SHRA OVC045
     FM311900 22010KT 4SM -SHRA BKN045
     FM312100 25007KT P6SM BKN050=

USA.gov is the U.S. government's official web portal to all federal, state and local government web resources and services.